»·PEaware :: N724SP KHHR-KTOA

N724SP :: KHHR-KTOA

FLIGHT INFORMATION

Flight Status: Arrived
Operator: Privately registered:
United States
More flights under this callsign
Pilot: Ranjeet R. (4631)
Aircraft: CESSNA 172 SKYHAWK
(C172)
More flights by this aircraft type
Origin: KHHR Northrop/Hawthorne Mun
United States
Destination: KTOA Zamperini
United States
More flights between these airports :: More routes between these airports
Route: +LIMBO V64 SLI
File this flight plan on PilotEdge
Remarks:
Altitude:
(Current/Filed)
4,000ft
Speed:
(Current/Filed)
100kts
Departed: 28-Dec-17 12:26 PM
Arrived: 28-Dec-17 12:47 PM
Distance/Time
Traveled:
7nm/0:21
Distance/Time
To Go:
Arrived

Flight Plot

Page will automatically refresh every two minutes.


Map Options




Map Legend


Flown Route
Filed Route
Departure Airport
Arrival Airport
Navaid (VOR, NDB)
Fix

Horizontal Profiles

Position Reports

Time Latitude Longitude Heading Altitude Ground
Speed
28-Dec-17 12:05 33.922021 -118.338002 357 61ft 0kts
28-Dec-17 12:06 33.922021 -118.338002 357 61ft 0kts
28-Dec-17 12:07 33.922021 -118.338002 357 61ft 0kts
28-Dec-17 12:08 33.922021 -118.338002 357 61ft 0kts
28-Dec-17 12:09 33.922021 -118.338002 357 61ft 0kts
28-Dec-17 12:10 33.922401 -118.336065 86 59ft 19kts
28-Dec-17 12:11 33.922646 -118.330838 85 56ft 12kts
28-Dec-17 12:12 33.922465 -118.329820 31 55ft 0kts
28-Dec-17 12:13 33.922465 -118.329820 31 55ft 0kts
28-Dec-17 12:14 33.922465 -118.329820 31 55ft 0kts
28-Dec-17 12:15 33.922465 -118.329820 31 55ft 0kts
28-Dec-17 12:16 33.922465 -118.329820 31 55ft 0kts
28-Dec-17 12:17 33.922465 -118.329820 31 55ft 0kts
28-Dec-17 12:18 33.922465 -118.329820 31 55ft 0kts
28-Dec-17 12:23 33.922370 -118.329992 86 55ft 0kts
28-Dec-17 12:25 33.922370 -118.329991 86 55ft 0kts
28-Dec-17 12:26 33.922370 -118.329992 86 55ft 0kts
28-Dec-17 12:27 33.922370 -118.329991 86 55ft 0kts
28-Dec-17 12:28 33.922370 -118.329992 86 55ft 0kts
28-Dec-17 12:29 33.922460 -118.329659 54 55ft 10kts
28-Dec-17 12:30 33.922785 -118.327286 63 55ft 0kts
28-Dec-17 12:31 33.923143 -118.328535 266 55ft 40kts
28-Dec-17 12:32 33.921983 -118.351056 269 757ft 85kts
28-Dec-17 12:33 33.906887 -118.369641 208 1689ft 86kts
28-Dec-17 12:34 33.886261 -118.389673 222 2440ft 90kts
28-Dec-17 12:35 33.866095 -118.406511 177 3279ft 92kts
28-Dec-17 12:36 33.845549 -118.390504 137 3914ft 101kts
28-Dec-17 12:37 33.825421 -118.369769 139 4000ft 104kts
28-Dec-17 12:38 33.806157 -118.348606 140 4018ft 111kts
28-Dec-17 12:39 33.782653 -118.331829 152 4128ft 106kts
28-Dec-17 12:40 33.756801 -118.314664 147 4001ft 112kts
28-Dec-17 12:41 33.733123 -118.294783 143 3969ft 101kts
28-Dec-17 12:42 33.711774 -118.273372 136 4035ft 111kts
28-Dec-17 12:43 33.688088 -118.249937 133 4008ft 109kts
28-Dec-17 12:44 33.672372 -118.219070 119 3582ft 108kts
28-Dec-17 12:45 33.659503 -118.190074 59 3356ft 93kts
28-Dec-17 12:46 33.687705 -118.184408 323 2830ft 113kts
28-Dec-17 12:47 33.709975 -118.208540 316 2141ft 111kts
28-Dec-17 12:48 33.729281 -118.231528 320 2070ft 93kts
28-Dec-17 12:49 33.745534 -118.254849 319 2104ft 83kts
28-Dec-17 12:50 33.761978 -118.278112 314 1436ft 101kts
28-Dec-17 12:51 33.778668 -118.301394 311 862ft 106kts
28-Dec-17 12:52 33.795703 -118.326332 308 342ft 97kts
28-Dec-17 12:53 33.805213 -118.341631 283 94ft 24kts
28-Dec-17 12:54 33.805966 -118.344187 286 91ft 0kts
28-Dec-17 12:55 33.806075 -118.344600 278 91ft 0kts
28-Dec-17 12:56 33.806075 -118.344601 277 91ft 0kts
28-Dec-17 12:57 33.805897 -118.345035 218 91ft 12kts
28-Dec-17 12:58 33.802836 -118.342380 226 101ft 14kts
28-Dec-17 12:59 33.802375 -118.342996 36 103ft 0kts
28-Dec-17 13:00 33.802375 -118.342996 36 103ft 0kts
28-Dec-17 13:01 33.802375 -118.342996 36 103ft 0kts

Navigation Log

Ident Type
Flight plan parsing failed, navigation log unavailable